sensor_id;sensor_type;location;lat;lon;timestamp;P1;durP1;ratioP1;P2;durP2;ratioP2
10811;SDS011;5458;51.496;7.334;2023-02-28T00:00:12;6.27;;;4.80;;
10811;SDS011;5458;51.496;7.334;2023-02-28T00:02:40;11.17;;;4.93;;
10811;SDS011;5458;51.496;7.334;2023-02-28T00:05:07;5.30;;;4.77;;
10811;SDS011;5458;51.496;7.334;2023-02-28T00:07:34;5.50;;;4.30;;
10811;SDS011;5458;51.496;7.334;2023-02-28T00:10:00;4.63;;;4.18;;
10811;SDS011;5458;51.496;7.334;2023-02-28T00:12:27;7.25;;;4.53;;
10811;SDS011;5458;51.496;7.334;2023-02-28T00:14:52;7.30;;;4.50;;
10811;SDS011;5458;51.496;7.334;2023-02-28T00:17:18;5.10;;;4.15;;
10811;SDS011;5458;51.496;7.334;2023-02-28T00:19:46;5.30;;;4.80;;
10811;SDS011;5458;51.496;7.334;2023-02-28T00:22:13;4.40;;;4.00;;
10811;SDS011;5458;51.496;7.334;2023-02-28T00:24:39;6.40;;;4.70;;
10811;SDS011;5458;51.496;7.334;2023-02-28T00:27:05;5.25;;;4.45;;
10811;SDS011;5458;51.496;7.334;2023-02-28T00:29:31;6.60;;;4.40;;
10811;SDS011;5458;51.496;7.334;2023-02-28T00:31:56;6.33;;;4.60;;
10811;SDS011;5458;51.496;7.334;2023-02-28T00:34:22;4.57;;;4.10;;
10811;SDS011;5458;51.496;7.334;2023-02-28T00:36:47;4.38;;;3.97;;
10811;SDS011;5458;51.496;7.334;2023-02-28T00:39:16;4.70;;;4.20;;
10811;SDS011;5458;51.496;7.334;2023-02-28T00:41:42;4.10;;;3.70;;
10811;SDS011;5458;51.496;7.334;2023-02-28T00:44:07;4.93;;;4.13;;
10811;SDS011;5458;51.496;7.334;2023-02-28T00:46:33;4.88;;;4.47;;
10811;SDS011;5458;51.496;7.334;2023-02-28T00:48:58;5.75;;;4.30;;
10811;SDS011;5458;51.496;7.334;2023-02-28T00:51:24;4.67;;;4.27;;
10811;SDS011;5458;51.496;7.334;2023-02-28T00:53:49;5.13;;;4.47;;
10811;SDS011;5458;51.496;7.334;2023-02-28T00:56:15;4.40;;;4.03;;
10811;SDS011;5458;51.496;7.334;2023-02-28T00:58:41;4.23;;;3.50;;
10811;SDS011;5458;51.496;7.334;2023-02-28T01:01:07;4.47;;;4.07;;
10811;SDS011;5458;51.496;7.334;2023-02-28T01:03:32;6.17;;;4.40;;
10811;SDS011;5458;51.496;7.334;2023-02-28T01:05:58;4.25;;;3.92;;
10811;SDS011;5458;51.496;7.334;2023-02-28T01:08:24;4.45;;;4.05;;
10811;SDS011;5458;51.496;7.334;2023-02-28T01:10:50;3.92;;;3.53;;
10811;SDS011;5458;51.496;7.334;2023-02-28T01:13:16;4.85;;;4.45;;
10811;SDS011;5458;51.496;7.334;2023-02-28T01:15:46;4.70;;;3.80;;
10811;SDS011;5458;51.496;7.334;2023-02-28T01:18:15;5.07;;;4.10;;
10811;SDS011;5458;51.496;7.334;2023-02-28T01:20:40;6.03;;;4.22;;
10811;SDS011;5458;51.496;7.334;2023-02-28T01:23:06;4.40;;;4.10;;
10811;SDS011;5458;51.496;7.334;2023-02-28T01:25:34;5.75;;;3.72;;
10811;SDS011;5458;51.496;7.334;2023-02-28T01:28:00;5.45;;;3.95;;
10811;SDS011;5458;51.496;7.334;2023-02-28T01:30:25;7.35;;;4.70;;
10811;SDS011;5458;51.496;7.334;2023-02-28T01:32:51;4.10;;;3.70;;
10811;SDS011;5458;51.496;7.334;2023-02-28T01:35:18;6.93;;;4.00;;
10811;SDS011;5458;51.496;7.334;2023-02-28T01:37:44;4.65;;;4.25;;
10811;SDS011;5458;51.496;7.334;2023-02-28T01:40:09;4.47;;;4.18;;
10811;SDS011;5458;51.496;7.334;2023-02-28T01:42:36;4.87;;;4.40;;
10811;SDS011;5458;51.496;7.334;2023-02-28T01:47:54;5.43;;;4.03;;
10811;SDS011;5458;51.496;7.334;2023-02-28T01:50:29;6.10;;;4.07;;
10811;SDS011;5458;51.496;7.334;2023-02-28T01:52:59;5.40;;;4.88;;
10811;SDS011;5458;51.496;7.334;2023-02-28T01:55:29;6.50;;;4.15;;
10811;SDS011;5458;51.496;7.334;2023-02-28T01:57:57;4.90;;;4.20;;
10811;SDS011;5458;51.496;7.334;2023-02-28T02:00:26;4.35;;;3.90;;
10811;SDS011;5458;51.496;7.334;2023-02-28T02:02:59;4.40;;;4.00;;
10811;SDS011;5458;51.496;7.334;2023-02-28T02:05:29;5.75;;;3.67;;
10811;SDS011;5458;51.496;7.334;2023-02-28T02:08:03;6.60;;;4.22;;
10811;SDS011;5458;51.496;7.334;2023-02-28T02:10:50;5.87;;;4.13;;
10811;SDS011;5458;51.496;7.334;2023-02-28T02:27:39;4.50;;;4.10;;
10811;SDS011;5458;51.496;7.334;2023-02-28T02:32:58;4.30;;;3.90;;
10811;SDS011;5458;51.496;7.334;2023-02-28T02:40:48;4.25;;;3.85;;
10811;SDS011;5458;51.496;7.334;2023-02-28T02:43:52;4.33;;;4.03;;
10811;SDS011;5458;51.496;7.334;2023-02-28T02:46:37;5.65;;;4.75;;
10811;SDS011;5458;51.496;7.334;2023-02-28T02:49:16;4.70;;;4.10;;
10811;SDS011;5458;51.496;7.334;2023-02-28T02:51:48;6.43;;;4.50;;
10811;SDS011;5458;51.496;7.334;2023-02-28T02:56:45;4.40;;;3.73;;
10811;SDS011;5458;51.496;7.334;2023-02-28T02:59:13;4.67;;;4.27;;
10811;SDS011;5458;51.496;7.334;2023-02-28T03:01:46;5.97;;;4.20;;
10811;SDS011;5458;51.496;7.334;2023-02-28T03:04:16;5.00;;;4.53;;
10811;SDS011;5458;51.496;7.334;2023-02-28T03:06:45;4.20;;;3.80;;
10811;SDS011;5458;51.496;7.334;2023-02-28T03:09:11;5.18;;;4.00;;
10811;SDS011;5458;51.496;7.334;2023-02-28T03:11:37;4.65;;;4.25;;
10811;SDS011;5458;51.496;7.334;2023-02-28T03:25:37;4.20;;;3.90;;
10811;SDS011;5458;51.496;7.334;2023-02-28T03:28:28;4.73;;;4.33;;
10811;SDS011;5458;51.496;7.334;2023-02-28T03:33:47;5.30;;;4.00;;
10811;SDS011;5458;51.496;7.334;2023-02-28T03:36:19;7.73;;;4.67;;
10811;SDS011;5458;51.496;7.334;2023-02-28T03:38:58;4.47;;;4.00;;
10811;SDS011;5458;51.496;7.334;2023-02-28T03:41:37;4.67;;;4.07;;
10811;SDS011;5458;51.496;7.334;2023-02-28T03:44:12;5.15;;;4.68;;
10811;SDS011;5458;51.496;7.334;2023-02-28T03:46:42;5.07;;;4.47;;
10811;SDS011;5458;51.496;7.334;2023-02-28T03:49:18;5.13;;;3.97;;
10811;SDS011;5458;51.496;7.334;2023-02-28T03:51:49;4.50;;;4.07;;
10811;SDS011;5458;51.496;7.334;2023-02-28T03:54:25;4.47;;;4.03;;
10811;SDS011;5458;51.496;7.334;2023-02-28T03:57:05;6.23;;;4.40;;
10811;SDS011;5458;51.496;7.334;2023-02-28T04:00:06;6.05;;;4.90;;
10811;SDS011;5458;51.496;7.334;2023-02-28T04:02:37;8.35;;;4.38;;
10811;SDS011;5458;51.496;7.334;2023-02-28T04:05:02;6.13;;;4.30;;
10811;SDS011;5458;51.496;7.334;2023-02-28T04:07:29;4.53;;;4.10;;
10811;SDS011;5458;51.496;7.334;2023-02-28T04:09:55;4.63;;;4.23;;
10811;SDS011;5458;51.496;7.334;2023-02-28T04:12:21;5.93;;;4.40;;
10811;SDS011;5458;51.496;7.334;2023-02-28T04:14:48;6.73;;;4.57;;
10811;SDS011;5458;51.496;7.334;2023-02-28T04:17:14;5.70;;;5.10;;
10811;SDS011;5458;51.496;7.334;2023-02-28T04:19:41;6.47;;;4.70;;
10811;SDS011;5458;51.496;7.334;2023-02-28T04:22:07;5.60;;;4.40;;
10811;SDS011;5458;51.496;7.334;2023-02-28T04:24:33;6.43;;;4.30;;
10811;SDS011;5458;51.496;7.334;2023-02-28T04:27:00;7.47;;;4.50;;
10811;SDS011;5458;51.496;7.334;2023-02-28T04:29:30;5.82;;;4.45;;
10811;SDS011;5458;51.496;7.334;2023-02-28T04:31:57;6.17;;;4.23;;
10811;SDS011;5458;51.496;7.334;2023-02-28T04:34:24;5.40;;;4.70;;
10811;SDS011;5458;51.496;7.334;2023-02-28T04:36:51;5.73;;;4.40;;
10811;SDS011;5458;51.496;7.334;2023-02-28T04:39:19;6.23;;;4.73;;
10811;SDS011;5458;51.496;7.334;2023-02-28T04:41:45;6.53;;;5.00;;
10811;SDS011;5458;51.496;7.334;2023-02-28T04:44:11;6.73;;;5.00;;
10811;SDS011;5458;51.496;7.334;2023-02-28T04:46:37;8.00;;;5.10;;
10811;SDS011;5458;51.496;7.334;2023-02-28T04:49:02;6.47;;;4.43;;
10811;SDS011;5458;51.496;7.334;2023-02-28T04:51:28;6.80;;;4.80;;
10811;SDS011;5458;51.496;7.334;2023-02-28T04:53:54;5.07;;;4.57;;
10811;SDS011;5458;51.496;7.334;2023-02-28T04:56:20;7.07;;;4.93;;
10811;SDS011;5458;51.496;7.334;2023-02-28T04:58:46;17.57;;;5.03;;
10811;SDS011;5458;51.496;7.334;2023-02-28T05:03:46;6.57;;;4.97;;
10811;SDS011;5458;51.496;7.334;2023-02-28T05:06:13;5.77;;;4.67;;
10811;SDS011;5458;51.496;7.334;2023-02-28T05:08:39;5.13;;;4.73;;
10811;SDS011;5458;51.496;7.334;2023-02-28T05:11:06;5.87;;;4.53;;
10811;SDS011;5458;51.496;7.334;2023-02-28T05:13:41;5.90;;;5.30;;
10811;SDS011;5458;51.496;7.334;2023-02-28T05:16:06;7.77;;;6.40;;
10811;SDS011;5458;51.496;7.334;2023-02-28T05:18:32;6.20;;;5.13;;
10811;SDS011;5458;51.496;7.334;2023-02-28T05:20:57;6.83;;;5.20;;
10811;SDS011;5458;51.496;7.334;2023-02-28T05:23:27;6.83;;;5.13;;
10811;SDS011;5458;51.496;7.334;2023-02-28T05:25:52;10.50;;;5.13;;
10811;SDS011;5458;51.496;7.334;2023-02-28T05:28:19;9.10;;;5.40;;
10811;SDS011;5458;51.496;7.334;2023-02-28T05:30:45;9.73;;;4.87;;
10811;SDS011;5458;51.496;7.334;2023-02-28T05:33:11;8.67;;;4.93;;
10811;SDS011;5458;51.496;7.334;2023-02-28T05:35:38;5.67;;;5.17;;
10811;SDS011;5458;51.496;7.334;2023-02-28T05:38:10;6.40;;;5.10;;
10811;SDS011;5458;51.496;7.334;2023-02-28T05:40:37;9.33;;;5.17;;
10811;SDS011;5458;51.496;7.334;2023-02-28T05:43:04;10.17;;;4.90;;
10811;SDS011;5458;51.496;7.334;2023-02-28T05:45:29;5.60;;;4.77;;
10811;SDS011;5458;51.496;7.334;2023-02-28T05:47:55;7.23;;;4.93;;
10811;SDS011;5458;51.496;7.334;2023-02-28T05:50:21;7.20;;;4.70;;
10811;SDS011;5458;51.496;7.334;2023-02-28T05:52:50;5.87;;;4.93;;
10811;SDS011;5458;51.496;7.334;2023-02-28T05:55:16;4.73;;;4.00;;
10811;SDS011;5458;51.496;7.334;2023-02-28T05:57:42;6.70;;;5.07;;
10811;SDS011;5458;51.496;7.334;2023-02-28T06:00:08;5.00;;;4.27;;
10811;SDS011;5458;51.496;7.334;2023-02-28T06:02:34;9.03;;;4.83;;
10811;SDS011;5458;51.496;7.334;2023-02-28T06:04:59;6.70;;;5.37;;
10811;SDS011;5458;51.496;7.334;2023-02-28T06:07:25;12.10;;;5.03;;
10811;SDS011;5458;51.496;7.334;2023-02-28T06:09:51;9.10;;;5.50;;
10811;SDS011;5458;51.496;7.334;2023-02-28T06:12:16;7.60;;;5.37;;
10811;SDS011;5458;51.496;7.334;2023-02-28T06:14:42;6.30;;;5.10;;
10811;SDS011;5458;51.496;7.334;2023-02-28T06:17:08;6.40;;;5.23;;
10811;SDS011;5458;51.496;7.334;2023-02-28T06:19:34;5.33;;;4.90;;
10811;SDS011;5458;51.496;7.334;2023-02-28T06:22:03;5.47;;;5.00;;
10811;SDS011;5458;51.496;7.334;2023-02-28T06:24:29;6.37;;;4.57;;
10811;SDS011;5458;51.496;7.334;2023-02-28T06:26:56;10.90;;;5.27;;
10811;SDS011;5458;51.496;7.334;2023-02-28T06:29:24;7.10;;;4.77;;
10811;SDS011;5458;51.496;7.334;2023-02-28T06:31:49;8.13;;;5.63;;
10811;SDS011;5458;51.496;7.334;2023-02-28T06:34:15;7.77;;;5.33;;
10811;SDS011;5458;51.496;7.334;2023-02-28T06:36:41;6.50;;;5.80;;
10811;SDS011;5458;51.496;7.334;2023-02-28T06:39:08;7.90;;;5.07;;
10811;SDS011;5458;51.496;7.334;2023-02-28T06:41:34;5.60;;;5.07;;
10811;SDS011;5458;51.496;7.334;2023-02-28T06:44:05;6.07;;;5.53;;
10811;SDS011;5458;51.496;7.334;2023-02-28T06:46:36;5.77;;;5.27;;
10811;SDS011;5458;51.496;7.334;2023-02-28T06:49:03;7.17;;;4.70;;
10811;SDS011;5458;51.496;7.334;2023-02-28T06:51:28;9.50;;;5.80;;
10811;SDS011;5458;51.496;7.334;2023-02-28T06:53:54;5.20;;;4.67;;
10811;SDS011;5458;51.496;7.334;2023-02-28T06:56:19;9.83;;;4.97;;
10811;SDS011;5458;51.496;7.334;2023-02-28T06:58:46;5.33;;;4.93;;
10811;SDS011;5458;51.496;7.334;2023-02-28T07:01:15;6.03;;;4.90;;
10811;SDS011;5458;51.496;7.334;2023-02-28T07:03:42;7.17;;;5.27;;
10811;SDS011;5458;51.496;7.334;2023-02-28T07:06:07;9.70;;;5.43;;
10811;SDS011;5458;51.496;7.334;2023-02-28T07:08:33;7.17;;;5.00;;
10811;SDS011;5458;51.496;7.334;2023-02-28T07:10:59;6.40;;;4.30;;
10811;SDS011;5458;51.496;7.334;2023-02-28T07:13:25;13.37;;;4.53;;
10811;SDS011;5458;51.496;7.334;2023-02-28T07:16:01;9.23;;;5.00;;
10811;SDS011;5458;51.496;7.334;2023-02-28T07:18:28;6.17;;;4.67;;
10811;SDS011;5458;51.496;7.334;2023-02-28T07:20:54;11.67;;;5.00;;
10811;SDS011;5458;51.496;7.334;2023-02-28T07:23:20;7.43;;;4.97;;
10811;SDS011;5458;51.496;7.334;2023-02-28T07:25:46;7.55;;;4.60;;
10811;SDS011;5458;51.496;7.334;2023-02-28T07:28:12;6.23;;;5.30;;
10811;SDS011;5458;51.496;7.334;2023-02-28T07:30:38;6.67;;;5.47;;
10811;SDS011;5458;51.496;7.334;2023-02-28T07:33:04;6.27;;;4.60;;
10811;SDS011;5458;51.496;7.334;2023-02-28T07:35:30;7.03;;;5.53;;
10811;SDS011;5458;51.496;7.334;2023-02-28T07:37:57;8.57;;;5.90;;
10811;SDS011;5458;51.496;7.334;2023-02-28T07:40:24;7.05;;;4.85;;
10811;SDS011;5458;51.496;7.334;2023-02-28T07:42:49;9.63;;;5.30;;
10811;SDS011;5458;51.496;7.334;2023-02-28T07:45:15;8.17;;;5.43;;
10811;SDS011;5458;51.496;7.334;2023-02-28T07:47:41;6.63;;;5.00;;
10811;SDS011;5458;51.496;7.334;2023-02-28T07:50:08;6.53;;;5.33;;
10811;SDS011;5458;51.496;7.334;2023-02-28T07:52:36;6.13;;;5.28;;
10811;SDS011;5458;51.496;7.334;2023-02-28T07:55:02;5.77;;;5.27;;
10811;SDS011;5458;51.496;7.334;2023-02-28T07:57:29;7.80;;;5.07;;
10811;SDS011;5458;51.496;7.334;2023-02-28T07:59:55;11.23;;;5.40;;
10811;SDS011;5458;51.496;7.334;2023-02-28T08:02:21;6.55;;;4.80;;
10811;SDS011;5458;51.496;7.334;2023-02-28T08:04:46;5.43;;;5.00;;
10811;SDS011;5458;51.496;7.334;2023-02-28T08:07:13;8.65;;;4.85;;
10811;SDS011;5458;51.496;7.334;2023-02-28T08:09:39;11.63;;;5.30;;
10811;SDS011;5458;51.496;7.334;2023-02-28T08:12:06;8.75;;;4.68;;
10811;SDS011;5458;51.496;7.334;2023-02-28T08:14:32;7.57;;;4.07;;
10811;SDS011;5458;51.496;7.334;2023-02-28T08:16:58;4.40;;;4.10;;
10811;SDS011;5458;51.496;7.334;2023-02-28T08:19:24;4.85;;;4.25;;
10811;SDS011;5458;51.496;7.334;2023-02-28T08:21:49;7.93;;;3.88;;
10811;SDS011;5458;51.496;7.334;2023-02-28T08:24:15;8.10;;;4.28;;
10811;SDS011;5458;51.496;7.334;2023-02-28T08:26:41;6.32;;;4.70;;
10811;SDS011;5458;51.496;7.334;2023-02-28T08:29:06;7.90;;;4.25;;
10811;SDS011;5458;51.496;7.334;2023-02-28T08:31:32;6.07;;;4.15;;
10811;SDS011;5458;51.496;7.334;2023-02-28T08:33:58;4.93;;;3.22;;
10811;SDS011;5458;51.496;7.334;2023-02-28T08:36:24;5.90;;;3.42;;
10811;SDS011;5458;51.496;7.334;2023-02-28T08:38:53;6.63;;;3.65;;
10811;SDS011;5458;51.496;7.334;2023-02-28T08:41:18;5.15;;;3.50;;
10811;SDS011;5458;51.496;7.334;2023-02-28T08:43:44;6.63;;;3.80;;
10811;SDS011;5458;51.496;7.334;2023-02-28T08:46:11;6.85;;;3.92;;
10811;SDS011;5458;51.496;7.334;2023-02-28T08:48:38;8.98;;;3.85;;
10811;SDS011;5458;51.496;7.334;2023-02-28T08:51:06;7.68;;;3.80;;
10811;SDS011;5458;51.496;7.334;2023-02-28T08:53:35;6.65;;;3.90;;
10811;SDS011;5458;51.496;7.334;2023-02-28T08:56:02;4.57;;;3.60;;
10811;SDS011;5458;51.496;7.334;2023-02-28T08:58:30;4.53;;;3.95;;
10811;SDS011;5458;51.496;7.334;2023-02-28T09:00:56;6.32;;;3.90;;
10811;SDS011;5458;51.496;7.334;2023-02-28T09:03:22;7.45;;;3.53;;
10811;SDS011;5458;51.496;7.334;2023-02-28T09:05:52;7.32;;;3.85;;
10811;SDS011;5458;51.496;7.334;2023-02-28T09:08:19;6.22;;;3.85;;
10811;SDS011;5458;51.496;7.334;2023-02-28T09:10:44;4.82;;;3.63;;
10811;SDS011;5458;51.496;7.334;2023-02-28T09:13:10;7.22;;;3.63;;
10811;SDS011;5458;51.496;7.334;2023-02-28T09:15:36;4.72;;;3.08;;
10811;SDS011;5458;51.496;7.334;2023-02-28T09:18:02;5.00;;;3.33;;
10811;SDS011;5458;51.496;7.334;2023-02-28T09:20:28;6.28;;;2.83;;
10811;SDS011;5458;51.496;7.334;2023-02-28T09:22:54;3.17;;;2.50;;
10811;SDS011;5458;51.496;7.334;2023-02-28T09:25:20;4.60;;;2.25;;
10811;SDS011;5458;51.496;7.334;2023-02-28T09:27:45;2.50;;;2.30;;
10811;SDS011;5458;51.496;7.334;2023-02-28T09:30:11;4.03;;;2.67;;
10811;SDS011;5458;51.496;7.334;2023-02-28T09:32:37;2.47;;;2.38;;
10811;SDS011;5458;51.496;7.334;2023-02-28T09:35:03;6.85;;;6.35;;
10811;SDS011;5458;51.496;7.334;2023-02-28T09:37:29;3.20;;;2.88;;
10811;SDS011;5458;51.496;7.334;2023-02-28T09:39:56;5.47;;;5.03;;
10811;SDS011;5458;51.496;7.334;2023-02-28T09:42:24;3.50;;;2.60;;
10811;SDS011;5458;51.496;7.334;2023-02-28T09:44:56;3.70;;;2.40;;
10811;SDS011;5458;51.496;7.334;2023-02-28T09:50:11;2.05;;;1.85;;
10811;SDS011;5458;51.496;7.334;2023-02-28T09:52:49;3.42;;;2.20;;
10811;SDS011;5458;51.496;7.334;2023-02-28T09:57:47;6.15;;;2.78;;
10811;SDS011;5458;51.496;7.334;2023-02-28T10:00:18;2.50;;;2.20;;
10811;SDS011;5458;51.496;7.334;2023-02-28T10:05:14;2.08;;;1.88;;
10811;SDS011;5458;51.496;7.334;2023-02-28T10:08:02;4.38;;;2.40;;
10811;SDS011;5458;51.496;7.334;2023-02-28T10:10:49;2.53;;;2.33;;
10811;SDS011;5458;51.496;7.334;2023-02-28T10:13:25;3.55;;;2.65;;
10811;SDS011;5458;51.496;7.334;2023-02-28T10:16:05;2.50;;;2.30;;
10811;SDS011;5458;51.496;7.334;2023-02-28T10:21:44;2.88;;;2.53;;
10811;SDS011;5458;51.496;7.334;2023-02-28T10:24:23;3.88;;;2.50;;
10811;SDS011;5458;51.496;7.334;2023-02-28T10:27:01;5.07;;;3.22;;
10811;SDS011;5458;51.496;7.334;2023-02-28T10:29:37;2.50;;;2.30;;
10811;SDS011;5458;51.496;7.334;2023-02-28T10:32:08;2.90;;;2.67;;
10811;SDS011;5458;51.496;7.334;2023-02-28T10:34:39;3.25;;;2.88;;
10811;SDS011;5458;51.496;7.334;2023-02-28T10:37:05;2.30;;;2.10;;
10811;SDS011;5458;51.496;7.334;2023-02-28T10:39:34;2.83;;;2.47;;
10811;SDS011;5458;51.496;7.334;2023-02-28T10:42:01;3.80;;;2.55;;
10811;SDS011;5458;51.496;7.334;2023-02-28T10:44:27;2.90;;;2.15;;
10811;SDS011;5458;51.496;7.334;2023-02-28T10:46:52;3.13;;;2.50;;
10811;SDS011;5458;51.496;7.334;2023-02-28T10:49:22;2.10;;;2.00;;
10811;SDS011;5458;51.496;7.334;2023-02-28T10:51:54;2.88;;;2.60;;
10811;SDS011;5458;51.496;7.334;2023-02-28T10:54:23;3.70;;;2.40;;
10811;SDS011;5458;51.496;7.334;2023-02-28T10:59:52;2.30;;;2.10;;
10811;SDS011;5458;51.496;7.334;2023-02-28T11:02:34;2.40;;;2.20;;
10811;SDS011;5458;51.496;7.334;2023-02-28T11:05:01;2.25;;;2.05;;
10811;SDS011;5458;51.496;7.334;2023-02-28T11:07:27;3.60;;;2.30;;
10811;SDS011;5458;51.496;7.334;2023-02-28T11:09:56;2.55;;;2.30;;
10811;SDS011;5458;51.496;7.334;2023-02-28T11:12:24;3.47;;;2.25;;
10811;SDS011;5458;51.496;7.334;2023-02-28T11:15:03;2.47;;;2.28;;
10811;SDS011;5458;51.496;7.334;2023-02-28T11:17:42;2.95;;;2.70;;
10811;SDS011;5458;51.496;7.334;2023-02-28T11:20:13;2.83;;;2.60;;
10811;SDS011;5458;51.496;7.334;2023-02-28T11:22:49;2.60;;;2.40;;
10811;SDS011;5458;51.496;7.334;2023-02-28T11:25:50;2.72;;;2.53;;
10811;SDS011;5458;51.496;7.334;2023-02-28T11:28:32;2.95;;;2.40;;
10811;SDS011;5458;51.496;7.334;2023-02-28T11:33:47;3.65;;;2.75;;
10811;SDS011;5458;51.496;7.334;2023-02-28T11:36:20;3.45;;;2.60;;
10811;SDS011;5458;51.496;7.334;2023-02-28T11:38:51;3.47;;;2.47;;
10811;SDS011;5458;51.496;7.334;2023-02-28T11:41:39;3.55;;;2.70;;
10811;SDS011;5458;51.496;7.334;2023-02-28T11:50:21;4.97;;;2.85;;
10811;SDS011;5458;51.496;7.334;2023-02-28T11:53:04;2.95;;;2.50;;
10811;SDS011;5458;51.496;7.334;2023-02-28T11:58:48;2.65;;;2.50;;
10811;SDS011;5458;51.496;7.334;2023-02-28T12:07:02;3.50;;;3.20;;
10811;SDS011;5458;51.496;7.334;2023-02-28T12:17:49;3.28;;;2.97;;
10811;SDS011;5458;51.496;7.334;2023-02-28T12:23:10;3.40;;;2.80;;
10811;SDS011;5458;51.496;7.334;2023-02-28T12:28:30;2.88;;;2.65;;
10811;SDS011;5458;51.496;7.334;2023-02-28T12:31:01;3.17;;;2.83;;
10811;SDS011;5458;51.496;7.334;2023-02-28T12:33:40;3.47;;;3.17;;
10811;SDS011;5458;51.496;7.334;2023-02-28T12:36:11;60.75;;;10.95;;
10811;SDS011;5458;51.496;7.334;2023-02-28T12:38:47;3.45;;;3.15;;
10811;SDS011;5458;51.496;7.334;2023-02-28T12:41:46;3.30;;;2.80;;
10811;SDS011;5458;51.496;7.334;2023-02-28T12:44:27;3.60;;;2.60;;
10811;SDS011;5458;51.496;7.334;2023-02-28T12:46:57;4.13;;;3.28;;
10811;SDS011;5458;51.496;7.334;2023-02-28T12:49:28;3.75;;;3.42;;
10811;SDS011;5458;51.496;7.334;2023-02-28T12:51:59;3.45;;;3.25;;
10811;SDS011;5458;51.496;7.334;2023-02-28T12:59:45;3.28;;;2.97;;
10811;SDS011;5458;51.496;7.334;2023-02-28T13:05:15;4.72;;;3.33;;
10811;SDS011;5458;51.496;7.334;2023-02-28T13:10:37;4.22;;;3.92;;
10811;SDS011;5458;51.496;7.334;2023-02-28T13:13:11;4.05;;;3.65;;
10811;SDS011;5458;51.496;7.334;2023-02-28T13:15:41;4.85;;;3.58;;
10811;SDS011;5458;51.496;7.334;2023-02-28T13:18:27;4.40;;;3.28;;
10811;SDS011;5458;51.496;7.334;2023-02-28T13:21:02;3.45;;;3.15;;
10811;SDS011;5458;51.496;7.334;2023-02-28T13:26:17;3.70;;;3.28;;
10811;SDS011;5458;51.496;7.334;2023-02-28T13:31:20;4.07;;;2.80;;
10811;SDS011;5458;51.496;7.334;2023-02-28T13:38:43;3.63;;;3.33;;
10811;SDS011;5458;51.496;7.334;2023-02-28T13:49:18;4.28;;;3.38;;
10811;SDS011;5458;51.496;7.334;2023-02-28T13:51:48;4.00;;;3.70;;
10811;SDS011;5458;51.496;7.334;2023-02-28T13:59:53;3.78;;;3.45;;
10811;SDS011;5458;51.496;7.334;2023-02-28T14:05:30;4.32;;;3.50;;
10811;SDS011;5458;51.496;7.334;2023-02-28T14:07:59;3.58;;;3.28;;
10811;SDS011;5458;51.496;7.334;2023-02-28T14:10:31;3.95;;;3.55;;
10811;SDS011;5458;51.496;7.334;2023-02-28T14:17:58;4.13;;;3.83;;
10811;SDS011;5458;51.496;7.334;2023-02-28T14:20:29;4.25;;;3.95;;
10811;SDS011;5458;51.496;7.334;2023-02-28T14:23:06;4.93;;;4.32;;
10811;SDS011;5458;51.496;7.334;2023-02-28T14:31:18;3.95;;;3.65;;
10811;SDS011;5458;51.496;7.334;2023-02-28T14:36:43;3.72;;;3.30;;
10811;SDS011;5458;51.496;7.334;2023-02-28T14:39:16;4.05;;;3.75;;
10811;SDS011;5458;51.496;7.334;2023-02-28T14:41:47;4.25;;;3.65;;
10811;SDS011;5458;51.496;7.334;2023-02-28T14:44:17;3.85;;;3.53;;
10811;SDS011;5458;51.496;7.334;2023-02-28T14:46:45;3.78;;;3.47;;
10811;SDS011;5458;51.496;7.334;2023-02-28T14:52:30;4.13;;;3.72;;
10811;SDS011;5458;51.496;7.334;2023-02-28T14:54:52;4.63;;;3.83;;
10811;SDS011;5458;51.496;7.334;2023-02-28T14:57:30;3.60;;;3.30;;
10811;SDS011;5458;51.496;7.334;2023-02-28T14:59:58;3.75;;;3.53;;
10811;SDS011;5458;51.496;7.334;2023-02-28T15:02:29;3.85;;;3.55;;
10811;SDS011;5458;51.496;7.334;2023-02-28T15:04:57;3.90;;;3.60;;
10811;SDS011;5458;51.496;7.334;2023-02-28T15:07:25;4.88;;;3.70;;
10811;SDS011;5458;51.496;7.334;2023-02-28T15:12:47;4.35;;;4.03;;
10811;SDS011;5458;51.496;7.334;2023-02-28T15:15:15;3.85;;;3.55;;
10811;SDS011;5458;51.496;7.334;2023-02-28T15:17:43;4.43;;;3.97;;
10811;SDS011;5458;51.496;7.334;2023-02-28T15:20:12;4.63;;;4.22;;
10811;SDS011;5458;51.496;7.334;2023-02-28T15:22:40;4.07;;;3.67;;
10811;SDS011;5458;51.496;7.334;2023-02-28T15:25:06;3.92;;;3.63;;
10811;SDS011;5458;51.496;7.334;2023-02-28T15:27:35;7.00;;;4.35;;
10811;SDS011;5458;51.496;7.334;2023-02-28T15:30:15;6.18;;;3.40;;
10811;SDS011;5458;51.496;7.334;2023-02-28T15:32:46;4.00;;;3.70;;
10811;SDS011;5458;51.496;7.334;2023-02-28T15:35:30;3.80;;;3.50;;
10811;SDS011;5458;51.496;7.334;2023-02-28T15:38:13;3.80;;;3.50;;
10811;SDS011;5458;51.496;7.334;2023-02-28T15:40:42;4.03;;;3.72;;
10811;SDS011;5458;51.496;7.334;2023-02-28T15:43:18;4.03;;;3.65;;
10811;SDS011;5458;51.496;7.334;2023-02-28T15:45:51;4.30;;;3.90;;
10811;SDS011;5458;51.496;7.334;2023-02-28T15:48:34;4.10;;;3.72;;
10811;SDS011;5458;51.496;7.334;2023-02-28T15:53:44;4.97;;;3.72;;
10811;SDS011;5458;51.496;7.334;2023-02-28T15:59:22;3.78;;;3.40;;
10811;SDS011;5458;51.496;7.334;2023-02-28T16:04:34;5.00;;;4.30;;
10811;SDS011;5458;51.496;7.334;2023-02-28T16:07:02;4.45;;;4.05;;
10811;SDS011;5458;51.496;7.334;2023-02-28T16:09:29;3.65;;;3.38;;
10811;SDS011;5458;51.496;7.334;2023-02-28T16:11:56;4.53;;;3.97;;
10811;SDS011;5458;51.496;7.334;2023-02-28T16:14:29;4.05;;;3.75;;
10811;SDS011;5458;51.496;7.334;2023-02-28T16:17:05;4.30;;;3.95;;
10811;SDS011;5458;51.496;7.334;2023-02-28T16:19:36;3.58;;;3.38;;
10811;SDS011;5458;51.496;7.334;2023-02-28T16:22:01;5.00;;;3.85;;
10811;SDS011;5458;51.496;7.334;2023-02-28T16:24:27;3.97;;;3.60;;
10811;SDS011;5458;51.496;7.334;2023-02-28T16:26:53;4.25;;;3.85;;
10811;SDS011;5458;51.496;7.334;2023-02-28T16:29:25;4.20;;;3.80;;
10811;SDS011;5458;51.496;7.334;2023-02-28T16:31:59;3.92;;;3.63;;
10811;SDS011;5458;51.496;7.334;2023-02-28T16:34:25;4.50;;;4.00;;
10811;SDS011;5458;51.496;7.334;2023-02-28T16:36:51;3.63;;;3.33;;
10811;SDS011;5458;51.496;7.334;2023-02-28T16:39:17;3.92;;;3.63;;
10811;SDS011;5458;51.496;7.334;2023-02-28T16:41:45;6.82;;;3.65;;
10811;SDS011;5458;51.496;7.334;2023-02-28T16:44:34;3.47;;;3.28;;
10811;SDS011;5458;51.496;7.334;2023-02-28T16:47:01;5.15;;;4.10;;
10811;SDS011;5458;51.496;7.334;2023-02-28T16:49:28;4.00;;;3.40;;
10811;SDS011;5458;51.496;7.334;2023-02-28T16:51:53;4.88;;;4.43;;
10811;SDS011;5458;51.496;7.334;2023-02-28T16:54:19;4.45;;;3.80;;
10811;SDS011;5458;51.496;7.334;2023-02-28T16:56:46;4.57;;;4.18;;
10811;SDS011;5458;51.496;7.334;2023-02-28T16:59:12;4.13;;;3.72;;
10811;SDS011;5458;51.496;7.334;2023-02-28T17:01:39;4.72;;;4.32;;
10811;SDS011;5458;51.496;7.334;2023-02-28T17:04:05;4.75;;;3.85;;
10811;SDS011;5458;51.496;7.334;2023-02-28T17:06:31;4.82;;;3.78;;
10811;SDS011;5458;51.496;7.334;2023-02-28T17:08:57;3.85;;;3.53;;
10811;SDS011;5458;51.496;7.334;2023-02-28T17:11:23;5.88;;;4.43;;
10811;SDS011;5458;51.496;7.334;2023-02-28T17:13:49;4.47;;;4.07;;
10811;SDS011;5458;51.496;7.334;2023-02-28T17:16:28;4.38;;;3.78;;
10811;SDS011;5458;51.496;7.334;2023-02-28T17:18:57;4.93;;;4.38;;
10811;SDS011;5458;51.496;7.334;2023-02-28T17:21:27;4.82;;;4.15;;
10811;SDS011;5458;51.496;7.334;2023-02-28T17:23:53;5.03;;;4.07;;
10811;SDS011;5458;51.496;7.334;2023-02-28T17:26:19;5.90;;;4.03;;
10811;SDS011;5458;51.496;7.334;2023-02-28T17:28:46;6.63;;;4.68;;
10811;SDS011;5458;51.496;7.334;2023-02-28T17:31:12;5.95;;;5.18;;
10811;SDS011;5458;51.496;7.334;2023-02-28T17:33:38;6.38;;;4.80;;
10811;SDS011;5458;51.496;7.334;2023-02-28T17:36:04;6.80;;;4.70;;
10811;SDS011;5458;51.496;7.334;2023-02-28T17:38:31;6.65;;;4.22;;
10811;SDS011;5458;51.496;7.334;2023-02-28T17:40:56;5.68;;;4.20;;
10811;SDS011;5458;51.496;7.334;2023-02-28T17:43:25;4.05;;;3.65;;
10811;SDS011;5458;51.496;7.334;2023-02-28T17:45:52;4.72;;;4.32;;
10811;SDS011;5458;51.496;7.334;2023-02-28T17:48:18;4.93;;;4.53;;